Time;durP1;ratioP1;P1;durP2;ratioP2;P2;SDS_P1;SDS_P2;PMS_P1;PMS_P2;Temp;Humidity;BMP_temperature;BMP_pressure;BME280_temperature;BME280_humidity;BME280_pressure;Samples;Min_cycle;Max_cycle;Signal;HPM_P1;HPM_P2
2022/12/31 00:01:30;;;;;;;4.40;3.23;;;2.70;99.90;2.30;97103.00;;;;5032277;28;20810;-84
2022/12/31 00:04:19;;;;;;;4.77;3.60;;;1.20;99.90;2.20;97102.00;;;;5033436;28;20437;-84
2022/12/31 00:07:08;;;;;;;8.03;4.53;;;2.10;99.90;1.90;97098.00;;;;5033571;28;20530;-84
2022/12/31 00:09:57;;;;;;;4.60;3.37;;;1.20;99.90;1.90;97100.00;;;;5031806;28;20495;-83
2022/12/31 00:12:45;;;;;;;5.60;3.90;;;1.20;99.90;2.10;97108.00;;;;5026589;28;20432;-84
2022/12/31 00:15:35;;;;;;;5.17;3.77;;;1.10;99.90;1.90;97104.00;;;;5032184;28;20487;-85
2022/12/31 00:18:25;;;;;;;8.90;3.77;;;1.10;99.90;2.10;97115.00;;;;5029470;28;20475;-82
2022/12/31 00:21:15;;;;;;;5.73;4.73;;;1.10;99.90;2.30;97118.00;;;;5031767;28;20913;-84
2022/12/31 00:24:06;;;;;;;5.87;4.07;;;1.50;99.90;2.10;97125.00;;;;5031636;28;20963;-84
2022/12/31 00:26:54;;;;;;;10.37;4.30;;;1.10;99.90;1.70;97122.00;;;;5032837;28;20436;-83
2022/12/31 00:29:43;;;;;;;10.10;4.27;;;2.70;99.90;2.00;97123.00;;;;5028825;28;20534;-82
2022/12/31 00:32:32;;;;;;;5.43;4.37;;;1.10;99.90;2.50;97124.00;;;;5032357;28;20432;-82
2022/12/31 00:35:22;;;;;;;6.20;4.63;;;1.20;99.90;2.40;97129.00;;;;5031382;28;20425;-83
2022/12/31 00:38:11;;;;;;;4.70;4.27;;;1.20;99.90;2.20;97127.00;;;;5031528;28;20825;-83
2022/12/31 00:41:00;;;;;;;4.53;4.03;;;1.20;99.90;2.40;97123.00;;;;5027265;28;20460;-81
2022/12/31 00:43:48;;;;;;;4.93;4.30;;;1.20;99.90;2.20;97123.00;;;;5026725;28;20443;-81
2022/12/31 00:46:37;;;;;;;4.50;4.10;;;1.20;99.90;2.10;97126.00;;;;5025293;28;20437;-81
2022/12/31 00:49:25;;;;;;;7.40;4.23;;;1.30;99.90;2.20;97116.00;;;;5032668;28;20416;-83
2022/12/31 00:52:17;;;;;;;4.93;4.37;;;1.10;99.90;2.00;97124.00;;;;5031017;28;20482;-82
2022/12/31 00:55:07;;;;;;;6.37;3.93;;;1.10;99.90;1.60;97125.00;;;;5031977;28;20432;-83
2022/12/31 00:57:56;;;;;;;5.87;5.00;;;1.00;99.90;2.10;97130.00;;;;5031665;28;20875;-83
2022/12/31 01:00:45;;;;;;;10.97;4.33;;;1.00;99.90;2.30;97141.00;;;;5031891;28;20440;-82
2022/12/31 01:03:33;;;;;;;5.07;4.23;;;2.20;99.90;2.40;97130.00;;;;5040003;28;20848;-84
2022/12/31 01:06:23;;;;;;;2.30;1.57;;;1.10;99.90;1.80;97139.00;;;;5031611;28;20428;-86
2022/12/31 01:09:15;;;;;;;4.80;3.77;;;1.50;99.90;1.80;97156.00;;;;5031548;28;20928;-83
2022/12/31 01:12:05;;;;;;;4.83;3.93;;;1.30;99.90;2.10;97162.00;;;;5025588;28;20449;-84
2022/12/31 01:14:54;;;;;;;6.10;3.23;;;1.10;99.90;1.90;97175.00;;;;5029648;28;20945;-83
2022/12/31 01:17:43;;;;;;;5.90;3.57;;;1.10;99.90;1.90;97171.00;;;;5029205;28;20429;-83
2022/12/31 01:20:35;;;;;;;4.87;4.37;;;2.60;99.90;2.10;97165.00;;;;5031680;28;20460;-83
2022/12/31 01:23:24;;;;;;;5.30;3.73;;;1.90;99.90;1.90;97167.00;;;;5033358;28;20421;-83
2022/12/31 01:26:16;;;;;;;8.17;3.50;;;1.40;99.90;1.90;97170.00;;;;5031771;28;20511;-83
2022/12/31 01:29:06;;;;;;;5.10;4.10;;;1.10;99.90;2.10;97167.00;;;;5031120;28;20995;-82
2022/12/31 01:31:55;;;;;;;2.87;2.57;;;1.50;99.90;1.60;97171.00;;;;5032703;28;20472;-81
2022/12/31 01:34:44;;;;;;;5.80;3.73;;;1.80;99.90;2.20;97183.00;;;;5031235;28;20799;-83
2022/12/31 01:37:33;;;;;;;5.10;3.97;;;2.60;99.90;2.20;97185.00;;;;5028194;28;20447;-82
2022/12/31 01:40:21;;;;;;;4.13;3.37;;;1.10;99.90;2.40;97187.00;;;;5028057;28;20459;-82
2022/12/31 01:43:18;;;;;;;4.70;4.00;;;1.60;99.90;2.50;97183.00;;;;5026459;28;20479;-81
2022/12/31 01:46:09;;;;;;;8.60;4.33;;;1.30;99.90;2.20;97187.00;;;;5015453;28;21420;-82
2022/12/31 01:49:03;;;;;;;11.20;4.23;;;1.30;99.90;2.30;97177.00;;;;5029804;28;20432;-82
2022/12/31 01:51:56;;;;;;;8.37;4.90;;;2.40;99.90;1.80;97186.00;;;;5029954;28;20838;-82
2022/12/31 01:54:50;;;;;;;5.33;3.03;;;1.20;99.90;1.80;97175.00;;;;5030598;28;20529;-82
2022/12/31 01:57:39;;;;;;;12.87;4.43;;;1.40;99.90;2.30;97190.00;;;;5029930;28;20444;-82
2022/12/31 02:00:29;;;;;;;6.13;3.83;;;1.20;99.90;2.50;97210.00;;;;5028994;28;20471;-81
2022/12/31 02:03:18;;;;;;;4.63;3.97;;;1.30;99.90;1.80;97200.00;;;;5029620;28;20949;-81
2022/12/31 02:06:15;;;;;;;6.10;4.47;;;1.20;99.90;1.80;97214.00;;;;5026457;28;20428;-82
2022/12/31 02:09:04;;;;;;;3.57;3.27;;;1.30;99.90;1.80;97213.00;;;;5029512;28;20822;-81
2022/12/31 02:11:53;;;;;;;4.70;3.83;;;1.10;99.90;1.90;97213.00;;;;5029643;28;20906;-81
2022/12/31 02:14:46;;;;;;;4.80;4.30;;;1.40;99.90;2.20;97223.00;;;;5028895;28;20956;-83
2022/12/31 02:17:45;;;;;;;6.60;4.27;;;2.00;99.90;2.10;97222.00;;;;5020827;28;20941;-82
2022/12/31 02:21:18;;;;;;;4.23;3.60;;;1.10;99.90;2.40;97220.00;;;;5029100;28;20864;-83
2022/12/31 02:24:50;;;;;;;8.07;4.40;;;1.20;99.90;2.60;97225.00;;;;5029888;28;20478;-84
2022/12/31 02:27:53;;;;;;;4.93;4.00;;;2.80;99.90;2.20;97214.00;;;;5016509;28;20429;-82
2022/12/31 02:30:48;;;;;;;2.43;2.20;;;1.30;99.90;1.80;97200.00;;;;5028969;28;20992;-83
2022/12/31 02:33:41;;;;;;;7.40;4.43;;;1.50;99.90;2.20;97203.00;;;;5031362;28;20428;-81
2022/12/31 02:36:36;;;;;;;3.50;2.33;;;1.20;99.90;1.40;97203.00;;;;5038093;28;20429;-81
2022/12/31 02:39:25;;;;;;;2.80;2.23;;;1.10;99.90;1.10;97193.00;;;;5040119;28;20937;-84
2022/12/31 02:42:14;;;;;;;5.63;3.70;;;0.90;99.90;1.50;97198.00;;;;5025568;28;20448;-83
2022/12/31 02:45:02;;;;;;;3.93;3.53;;;0.80;99.90;1.80;97210.00;;;;5031815;28;20494;-84
2022/12/31 02:48:26;;;;;;;3.73;3.00;;;1.30;99.90;1.90;97214.00;;;;5030981;28;20439;-84
2022/12/31 02:51:33;;;;;;;7.07;4.60;;;0.90;99.90;2.20;97229.00;;;;5018751;28;20474;-82
2022/12/31 02:54:33;;;;;;;4.33;3.67;;;1.00;99.90;2.40;97225.00;;;;5032093;28;20432;-84
2022/12/31 02:57:30;;;;;;;5.37;3.93;;;2.00;99.90;2.60;97221.00;;;;5030625;28;20440;-82
2022/12/31 03:03:28;;;;;;;5.23;3.40;;;1.20;99.90;2.60;97207.00;;;;5031303;28;20945;-83
2022/12/31 03:06:17;;;;;;;4.73;3.43;;;1.90;99.90;2.60;97225.00;;;;5035622;28;20961;-81
2022/12/31 03:09:15;;;;;;;5.40;3.63;;;2.00;99.90;2.60;97225.00;;;;5033306;28;20425;-83
2022/12/31 03:15:20;;;;;;;5.30;3.80;;;1.40;99.90;2.60;97240.00;;;;5033383;28;20427;-84
2022/12/31 03:18:12;;;;;;;5.27;4.53;;;1.70;99.90;2.70;97233.00;;;;5035186;28;20697;-84
2022/12/31 03:27:15;;;;;;;5.10;3.23;;;1.40;99.90;2.20;97220.00;;;;5026430;28;20510;-85
2022/12/31 03:30:05;;;;;;;5.13;3.20;;;1.80;99.90;2.20;97212.00;;;;5034949;28;20447;-84
2022/12/31 03:32:56;;;;;;;3.70;2.63;;;1.30;99.90;1.90;97227.00;;;;5021988;28;20992;-84
2022/12/31 03:35:47;;;;;;;6.50;4.53;;;1.40;99.90;2.20;97239.00;;;;5035013;28;20486;-83
2022/12/31 03:38:38;;;;;;;4.30;3.47;;;1.20;99.90;2.60;97227.00;;;;5034303;28;20436;-84
2022/12/31 03:41:26;;;;;;;5.43;3.93;;;1.30;99.90;2.70;97259.00;;;;5017613;28;20468;-84
2022/12/31 03:44:15;;;;;;;6.73;3.47;;;1.30;99.90;2.50;97233.00;;;;5035962;28;20436;-85
2022/12/31 03:47:04;;;;;;;4.47;3.47;;;1.40;99.90;2.00;97249.00;;;;5034189;28;20440;-85
2022/12/31 03:49:53;;;;;;;6.03;4.30;;;1.30;99.90;2.20;97247.00;;;;5033319;28;20432;-83
2022/12/31 03:52:42;;;;;;;5.83;3.87;;;1.50;99.90;2.20;97266.00;;;;5034985;28;20464;-82
2022/12/31 03:55:32;;;;;;;6.97;3.90;;;1.20;99.90;2.00;97271.00;;;;5035745;28;20555;-86
2022/12/31 03:58:22;;;;;;;3.27;2.37;;;1.20;99.90;1.90;97277.00;;;;5034285;28;20432;-85
2022/12/31 04:01:11;;;;;;;4.80;3.50;;;1.20;99.90;1.90;97283.00;;;;5034046;28;20830;-82
2022/12/31 04:03:59;;;;;;;5.67;3.30;;;1.20;99.90;1.50;97281.00;;;;5033494;28;20778;-83
2022/12/31 04:06:48;;;;;;;5.37;3.43;;;1.50;99.90;1.80;97290.00;;;;5034628;28;20439;-84
2022/12/31 04:09:37;;;;;;;13.23;4.07;;;1.00;99.90;1.60;97281.00;;;;5033691;28;20432;-82
2022/12/31 04:12:27;;;;;;;3.57;3.23;;;1.50;99.90;2.00;97288.00;;;;5023046;28;20515;-84
2022/12/31 04:15:19;;;;;;;5.33;3.30;;;0.90;99.90;1.80;97287.00;;;;5030353;28;20482;-87
2022/12/31 04:18:07;;;;;;;4.50;3.53;;;1.00;99.90;2.30;97294.00;;;;5029274;28;20860;-83
2022/12/31 04:21:02;;;;;;;4.57;3.70;;;2.70;99.90;2.40;97295.00;;;;5034892;28;20475;-81
2022/12/31 04:23:51;;;;;;;2.30;2.00;;;1.20;99.90;2.20;97304.00;;;;5054893;28;20421;-84
2022/12/31 04:26:39;;;;;;;3.73;3.13;;;3.20;99.90;2.50;97298.00;;;;5048381;28;20444;-83
2022/12/31 04:29:29;;;;;;;4.07;3.07;;;1.50;99.90;2.10;97312.00;;;;5034830;28;20444;-84
2022/12/31 04:32:18;;;;;;;10.30;4.53;;;1.50;99.90;2.40;97306.00;;;;5033197;28;20490;-84
2022/12/31 04:35:09;;;;;;;3.93;3.23;;;1.50;99.90;2.30;97324.00;;;;5032948;28;20435;-84
2022/12/31 04:37:58;;;;;;;5.67;3.30;;;1.50;99.90;2.10;97341.00;;;;5032811;28;20436;-82
2022/12/31 04:43:51;;;;;;;7.13;3.50;;;1.90;99.90;2.10;97353.00;;;;5025997;28;20455;-84
2022/12/31 04:46:42;;;;;;;3.87;2.93;;;1.20;99.90;2.20;97359.00;;;;5034543;28;20787;-84
2022/12/31 04:49:30;;;;;;;5.90;3.93;;;1.70;99.90;2.40;97368.00;;;;5032278;28;20435;-84
2022/12/31 04:52:19;;;;;;;5.73;3.83;;;1.50;99.90;2.40;97364.00;;;;5033716;28;20468;-84
2022/12/31 04:55:09;;;;;;;7.37;3.53;;;2.00;99.90;2.20;97367.00;;;;5034163;28;20981;-83
2022/12/31 04:57:57;;;;;;;4.00;3.20;;;1.20;99.90;2.20;97377.00;;;;5032834;28;20802;-84
2022/12/31 05:00:48;;;;;;;4.67;3.30;;;1.90;99.90;2.40;97387.00;;;;5034157;28;20444;-85
2022/12/31 05:03:39;;;;;;;3.63;3.33;;;1.40;99.90;2.40;97385.00;;;;5033087;28;20795;-85
2022/12/31 05:06:27;;;;;;;3.93;3.13;;;1.60;99.90;2.80;97374.00;;;;5033514;28;20432;-84
2022/12/31 05:09:16;;;;;;;6.33;3.70;;;1.70;99.90;2.40;97373.00;;;;5032937;28;20458;-85
2022/12/31 05:12:06;;;;;;;4.90;3.50;;;1.50;99.90;2.10;97369.00;;;;5033155;28;20468;-86
2022/12/31 05:14:55;;;;;;;5.57;2.97;;;1.50;99.90;2.00;97368.00;;;;5030039;28;20428;-85
2022/12/31 05:17:43;;;;;;;6.80;3.60;;;1.50;99.90;2.20;97370.00;;;;5032579;28;20921;-84
2022/12/31 05:20:34;;;;;;;3.73;3.40;;;1.40;99.90;1.60;97379.00;;;;5034065;28;20489;-84
2022/12/31 05:23:23;;;;;;;3.27;2.77;;;1.30;99.90;1.80;97393.00;;;;5033666;28;20428;-85
2022/12/31 05:26:12;;;;;;;3.30;2.50;;;2.10;99.90;1.50;97379.00;;;;5034835;28;20456;-85
2022/12/31 05:29:01;;;;;;;6.43;3.70;;;1.30;99.90;1.70;97389.00;;;;5030248;28;20435;-84
2022/12/31 05:31:49;;;;;;;3.17;2.87;;;1.20;99.90;2.20;97396.00;;;;5032756;28;20471;-83
2022/12/31 05:34:38;;;;;;;3.30;3.00;;;1.20;99.90;1.90;97401.00;;;;5031984;28;20432;-82
2022/12/31 05:37:29;;;;;;;2.27;2.10;;;1.20;99.90;1.80;97403.00;;;;5032291;28;20961;-84
2022/12/31 05:40:18;;;;;;;2.23;2.03;;;1.10;99.90;1.90;97408.00;;;;5028137;28;20491;-85
2022/12/31 05:43:07;;;;;;;5.60;2.80;;;1.20;99.90;2.50;97400.00;;;;5027961;28;20536;-84
2022/12/31 05:45:56;;;;;;;2.10;1.73;;;1.70;99.90;2.30;97390.00;;;;5022497;28;20456;-81
2022/12/31 05:48:45;;;;;;;4.17;2.80;;;1.60;99.90;1.90;97383.00;;;;5030193;28;20956;-85
2022/12/31 05:51:34;;;;;;;9.17;5.27;;;1.40;99.90;2.30;97389.00;;;;5028013;28;20432;-82
2022/12/31 05:54:24;;;;;;;5.60;3.63;;;1.40;99.90;2.40;97386.00;;;;5020231;28;20827;-84
2022/12/31 05:57:13;;;;;;;4.27;3.70;;;1.50;99.90;2.20;97390.00;;;;5019785;28;20930;-85
2022/12/31 06:00:01;;;;;;;5.57;3.50;;;1.50;99.90;2.30;97387.00;;;;5030868;28;20860;-84
2022/12/31 06:02:50;;;;;;;4.30;2.33;;;1.50;99.90;2.00;97390.00;;;;5032711;28;20455;-83
2022/12/31 06:05:42;;;;;;;4.93;2.90;;;1.40;99.90;2.50;97390.00;;;;5031629;28;20436;-84
2022/12/31 06:08:31;;;;;;;6.00;3.53;;;1.50;99.90;2.60;97395.00;;;;5031071;28;20439;-83
2022/12/31 06:11:21;;;;;;;5.40;3.73;;;1.50;99.90;2.70;97406.00;;;;5031038;28;20803;-84
2022/12/31 06:14:10;;;;;;;7.80;3.70;;;2.00;99.90;2.40;97428.00;;;;5024930;28;21033;-84
2022/12/31 06:16:59;;;;;;;3.63;3.10;;;1.90;99.90;2.60;97423.00;;;;5031426;28;20439;-84
2022/12/31 06:19:48;;;;;;;4.67;3.60;;;1.90;99.90;2.70;97439.00;;;;5031625;28;20522;-84
2022/12/31 06:22:37;;;;;;;7.20;3.73;;;1.60;99.90;2.90;97426.00;;;;5031658;28;20431;-85
2022/12/31 06:25:26;;;;;;;5.63;3.97;;;1.70;99.90;3.00;97426.00;;;;5030796;28;20526;-82
2022/12/31 06:28:16;;;;;;;4.27;3.77;;;1.80;99.90;3.00;97429.00;;;;5032826;28;20432;-84
2022/12/31 06:31:11;;;;;;;2.50;2.27;;;2.60;99.90;2.80;97422.00;;;;5025706;28;20449;-83
2022/12/31 06:34:00;;;;;;;3.33;2.97;;;1.90;99.90;2.70;97421.00;;;;5030813;28;20452;-84
2022/12/31 06:36:49;;;;;;;4.13;3.40;;;2.10;99.90;3.00;97427.00;;;;5030862;28;20811;-81
2022/12/31 06:39:37;;;;;;;37.40;21.67;;;2.00;99.90;3.10;97430.00;;;;5030012;28;20409;-84
2022/12/31 06:42:29;;;;;;;20.17;13.93;;;2.00;99.90;3.00;97444.00;;;;5035427;28;20490;-84
2022/12/31 06:45:19;;;;;;;10.07;5.57;;;2.00;99.90;2.60;97453.00;;;;5035475;28;20834;-84
2022/12/31 06:48:08;;;;;;;13.07;4.90;;;1.90;99.90;3.00;97457.00;;;;5035398;28;20467;-84
2022/12/31 06:50:57;;;;;;;10.33;5.77;;;2.00;99.90;3.10;97465.00;;;;5036108;28;20459;-83
2022/12/31 06:53:48;;;;;;;4.43;3.40;;;2.00;99.90;2.70;97476.00;;;;5035104;28;20981;-84
2022/12/31 06:56:37;;;;;;;1.37;1.27;;;1.90;99.90;2.50;97466.00;;;;5035363;28;20428;-87
2022/12/31 06:59:29;;;;;;;7.47;3.03;;;1.90;99.90;2.40;97471.00;;;;5034392;28;20861;-83
2022/12/31 07:02:50;;;;;;;8.30;5.33;;;1.80;99.90;2.40;97470.00;;;;5034740;28;20420;-80
2022/12/31 07:05:47;;;;;;;5.50;3.97;;;1.80;99.90;3.00;97477.00;;;;5034033;28;20432;-83
2022/12/31 07:08:50;;;;;;;7.77;4.67;;;1.90;99.90;3.30;97478.00;;;;5035027;28;20417;-83
2022/12/31 07:11:52;;;;;;;9.77;6.27;;;1.90;99.90;3.60;97495.00;;;;5035552;28;20571;-84
2022/12/31 07:14:47;;;;;;;5.40;4.80;;;2.10;99.90;3.00;97485.00;;;;5027325;28;20471;-84
2022/12/31 07:17:50;;;;;;;4.67;2.23;;;2.20;99.90;3.00;97477.00;;;;5032479;28;20424;-86
2022/12/31 07:20:40;;;;;;;3.63;2.80;;;2.10;99.90;2.70;97479.00;;;;5034459;28;20539;-82
2022/12/31 07:23:29;;;;;;;5.50;3.63;;;2.10;99.90;3.00;97493.00;;;;5032331;28;20435;-85
2022/12/31 07:26:39;;;;;;;2.47;2.27;;;2.10;99.90;2.50;97492.00;;;;5034424;28;20541;-84
2022/12/31 07:29:42;;;;;;;3.83;3.43;;;2.10;99.90;3.40;97491.00;;;;5033862;28;20428;-84
2022/12/31 07:33:01;;;;;;;13.90;6.80;;;2.20;99.90;3.30;97492.00;;;;5035035;28;20420;-84
2022/12/31 07:36:01;;;;;;;6.37;5.23;;;2.30;99.90;2.90;97488.00;;;;5034696;28;20514;-85
2022/12/31 07:38:55;;;;;;;8.67;4.93;;;2.30;99.90;3.20;97495.00;;;;5027865;28;20439;-83
2022/12/31 07:41:55;;;;;;;2.83;2.63;;;2.30;99.90;3.20;97500.00;;;;5033684;28;20840;-84
2022/12/31 07:44:58;;;;;;;7.70;4.97;;;2.30;99.90;3.40;97509.00;;;;5033399;28;20486;-84
2022/12/31 07:47:49;;;;;;;5.63;2.30;;;2.40;99.90;3.40;97497.00;;;;5027340;28;20427;-83
2022/12/31 07:50:38;;;;;;;2.57;2.37;;;2.50;99.90;3.00;97488.00;;;;5027018;28;20448;-86
2022/12/31 07:53:28;;;;;;;3.57;2.97;;;2.40;99.90;3.30;97493.00;;;;5024001;28;20514;-85
2022/12/31 07:56:17;;;;;;;6.33;4.60;;;2.40;99.90;3.30;97487.00;;;;5029528;28;20436;-82
2022/12/31 07:59:21;;;;;;;8.00;4.67;;;2.50;99.90;3.50;97503.00;;;;5031445;28;20432;-84
2022/12/31 08:02:24;;;;;;;23.93;17.30;;;2.60;99.90;4.00;97497.00;;;;5031032;28;21020;-83
2022/12/31 08:05:23;;;;;;;5.20;4.70;;;2.80;99.90;3.60;97513.00;;;;5031595;28;20428;-82
2022/12/31 08:08:31;;;;;;;3.70;3.40;;;2.90;99.90;3.70;97520.00;;;;5033794;28;20427;-83
2022/12/31 08:11:32;;;;;;;11.83;5.63;;;2.70;99.90;4.20;97510.00;;;;5035012;28;20440;-83
2022/12/31 08:14:21;;;;;;;8.80;6.33;;;2.80;99.90;4.00;97524.00;;;;5032416;28;20460;-87
2022/12/31 08:17:13;;;;;;;7.13;6.17;;;2.80;99.90;4.30;97543.00;;;;5037131;28;20429;-87
2022/12/31 08:20:03;;;;;;;6.70;5.07;;;2.90;99.90;4.40;97522.00;;;;5036869;28;20416;-85
2022/12/31 08:23:20;;;;;;;6.70;4.77;;;2.90;99.90;3.90;97515.00;;;;5031366;28;20725;-84
2022/12/31 08:26:24;;;;;;;7.73;5.70;;;3.00;99.90;4.20;97534.00;;;;5025050;28;20432;-84
2022/12/31 08:29:30;;;;;;;13.03;7.77;;;3.00;99.90;4.20;97547.00;;;;5028357;28;20427;-83
2022/12/31 08:32:25;;;;;;;13.77;9.80;;;3.00;99.90;4.20;97556.00;;;;5021722;28;20812;-83
2022/12/31 08:35:28;;;;;;;9.67;6.73;;;3.10;99.90;4.20;97565.00;;;;5033339;28;21056;-85
2022/12/31 08:38:30;;;;;;;8.20;6.07;;;3.20;99.90;4.50;97565.00;;;;5032211;28;20486;-85
2022/12/31 08:41:29;;;;;;;8.97;5.97;;;3.30;99.90;4.40;97566.00;;;;5032767;28;20471;-84
2022/12/31 08:44:25;;;;;;;8.73;6.70;;;3.30;99.90;4.60;97566.00;;;;5033643;28;20243;-83
2022/12/31 08:47:25;;;;;;;5.20;4.47;;;3.40;99.90;4.40;97578.00;;;;5033177;28;20937;-84
2022/12/31 08:50:16;;;;;;;6.07;5.10;;;3.30;99.90;4.30;97589.00;;;;5034037;28;20463;-83
2022/12/31 08:53:06;;;;;;;12.80;9.27;;;3.30;99.90;4.50;97581.00;;;;5022699;28;20464;-82
2022/12/31 08:56:05;;;;;;;10.40;7.73;;;3.30;99.90;4.90;97584.00;;;;5032782;28;20609;-84
2022/12/31 08:59:14;;;;;;;11.27;9.00;;;3.40;99.90;4.70;97589.00;;;;5032863;28;20945;-84
2022/12/31 09:02:30;;;;;;;10.50;7.73;;;3.50;99.90;4.80;97587.00;;;;5028076;28;20459;-82
2022/12/31 09:05:25;;;;;;;6.80;6.13;;;3.50;99.90;5.00;97578.00;;;;5032430;28;20440;-82
2022/12/31 09:08:26;;;;;;;9.37;6.70;;;3.60;99.90;5.40;97575.00;;;;5028986;28;20474;-84
2022/12/31 09:11:21;;;;;;;9.27;6.87;;;3.70;99.90;5.10;97580.00;;;;5025619;28;20716;-82
2022/12/31 09:14:31;;;;;;;9.77;6.90;;;3.80;99.90;5.00;97585.00;;;;5028244;28;20710;-84
2022/12/31 09:17:46;;;;;;;6.53;4.50;;;3.90;99.90;4.60;97579.00;;;;5029914;28;20857;-83
2022/12/31 09:20:36;;;;;;;6.53;4.27;;;3.80;99.90;4.70;97591.00;;;;5025982;28;20613;-83
2022/12/31 09:23:33;;;;;;;5.73;4.23;;;3.70;99.90;4.70;97591.00;;;;5028406;28;20209;-83
2022/12/31 09:26:42;;;;;;;4.00;3.60;;;3.70;99.90;4.70;97589.00;;;;5032006;28;20694;-82
2022/12/31 09:29:53;;;;;;;5.43;4.00;;;3.70;99.90;4.90;97594.00;;;;5034762;28;20691;-84
2022/12/31 09:32:50;;;;;;;3.40;3.10;;;3.70;99.90;5.20;97591.00;;;;5031011;28;20813;-82
2022/12/31 09:35:49;;;;;;;6.53;5.20;;;3.80;99.90;5.20;97591.00;;;;5030563;28;20221;-84
2022/12/31 09:38:51;;;;;;;7.33;4.23;;;3.90;99.90;5.70;97598.00;;;;5032186;28;20193;-83
2022/12/31 09:42:31;;;;;;;6.77;3.97;;;4.00;99.90;5.60;97599.00;;;;5019334;28;20240;-84
2022/12/31 09:46:02;;;;;;;6.60;4.77;;;4.70;99.90;5.30;97594.00;;;;5031838;28;20209;-81
2022/12/31 09:49:50;;;;;;;12.13;6.93;;;4.20;99.90;5.30;97591.00;;;;5031504;28;20208;-84
2022/12/31 09:52:55;;;;;;;10.97;5.33;;;5.10;99.90;5.30;97595.00;;;;4998178;28;20205;-84
2022/12/31 09:55:51;;;;;;;4.57;3.57;;;4.30;99.90;5.50;97593.00;;;;5030603;28;20217;-84
2022/12/31 09:58:50;;;;;;;6.13;3.77;;;4.30;99.90;5.70;97600.00;;;;5029842;28;20251;-81
2022/12/31 10:01:49;;;;;;;4.07;3.33;;;4.30;99.90;5.30;97597.00;;;;5022710;28;20225;-83
2022/12/31 10:04:59;;;;;;;4.20;3.03;;;4.30;99.90;5.10;97591.00;;;;5027047;28;20208;-82
2022/12/31 10:07:57;;;;;;;6.87;4.37;;;4.30;99.90;5.10;97599.00;;;;5021012;28;20339;-84
2022/12/31 10:10:53;;;;;;;7.03;4.47;;;4.20;99.90;5.30;97604.00;;;;5031716;28;20570;-83
2022/12/31 10:13:59;;;;;;;7.30;4.80;;;4.20;99.90;5.70;97607.00;;;;5021472;28;20217;-82
2022/12/31 10:17:01;;;;;;;6.13;4.07;;;4.30;99.90;5.70;97596.00;;;;5036982;28;20578;-84
2022/12/31 10:20:30;;;;;;;5.37;4.10;;;4.30;99.90;5.70;97601.00;;;;5038947;28;20200;-84
2022/12/31 10:23:58;;;;;;;5.73;4.77;;;4.40;99.90;5.90;97593.00;;;;5026233;28;20208;-84
2022/12/31 10:27:12;;;;;;;5.27;4.53;;;4.50;99.90;5.80;97593.00;;;;5022199;28;20260;-82
2022/12/31 10:30:15;;;;;;;6.83;5.47;;;4.50;99.90;6.00;97593.00;;;;5031646;28;20198;-82
2022/12/31 10:33:16;;;;;;;9.17;6.57;;;4.60;99.90;6.30;97597.00;;;;5028326;28;20209;-84
2022/12/31 10:36:12;;;;;;;8.63;5.23;;;4.80;99.90;6.10;97596.00;;;;5025479;28;20235;-81
2022/12/31 10:39:12;;;;;;;6.93;4.43;;;4.80;99.90;5.50;97591.00;;;;5031055;28;20215;-87
2022/12/31 10:42:40;;;;;;;5.23;4.73;;;5.00;99.90;5.70;97603.00;;;;5031339;28;20251;-81
2022/12/31 10:46:18;;;;;;;7.53;5.83;;;4.70;99.90;6.30;97601.00;;;;5032055;28;20734;-83
2022/12/31 10:50:15;;;;;;;7.77;6.00;;;4.80;99.90;6.60;97599.00;;;;5027314;28;20213;-84
2022/12/31 10:53:54;;;;;;;7.87;5.83;;;4.90;99.90;6.40;97591.00;;;;5016246;28;20292;-83
2022/12/31 10:57:07;;;;;;;8.43;5.87;;;5.00;99.90;6.20;97571.00;;;;5027413;28;20226;-84
2022/12/31 11:00:16;;;;;;;7.33;5.40;;;5.00;99.90;6.40;97582.00;;;;5025585;28;20206;-82
2022/12/31 11:03:47;;;;;;;6.80;6.07;;;5.20;99.90;6.60;97588.00;;;;5029729;28;20694;-84
2022/12/31 11:07:30;;;;;;;22.60;11.57;;;5.30;99.90;6.40;97576.00;;;;5021514;28;20205;-82
2022/12/31 11:10:58;;;;;;;10.90;7.13;;;5.30;99.90;6.90;97575.00;;;;5020811;28;20235;-84
2022/12/31 11:14:24;;;;;;;9.80;5.70;;;5.40;99.90;6.80;97560.00;;;;5026767;28;20205;-82
2022/12/31 11:17:31;;;;;;;8.53;6.23;;;5.40;99.90;6.90;97565.00;;;;5030304;28;20205;-84
2022/12/31 11:20:55;;;;;;;7.27;5.47;;;5.50;99.90;7.30;97568.00;;;;5024641;28;20227;-82
2022/12/31 11:23:55;;;;;;;7.87;5.37;;;5.60;99.90;7.60;97576.00;;;;5027543;28;20224;-84
2022/12/31 11:27:01;;;;;;;5.90;5.00;;;5.70;99.90;7.80;97569.00;;;;5032983;28;20750;-83
2022/12/31 11:30:05;;;;;;;8.50;4.90;;;6.00;99.90;8.00;97566.00;;;;5024856;28;20197;-83
2022/12/31 11:33:14;;;;;;;8.77;5.27;;;6.20;99.90;8.40;97561.00;;;;5034216;28;20205;-82
2022/12/31 11:36:19;;;;;;;7.57;4.43;;;6.50;99.90;8.80;97554.00;;;;5029314;28;20251;-85
2022/12/31 11:39:30;;;;;;;7.97;4.43;;;6.80;99.90;9.10;97570.00;;;;5029403;28;20216;-82
2022/12/31 11:42:24;;;;;;;5.40;3.77;;;7.10;99.90;9.40;97563.00;;;;5030509;28;20209;-85
2022/12/31 11:45:27;;;;;;;6.10;3.90;;;7.40;99.90;9.70;97563.00;;;;5024984;28;20202;-84
2022/12/31 11:48:23;;;;;;;6.30;3.93;;;7.70;99.90;9.90;97565.00;;;;5034352;28;20263;-84
2022/12/31 11:51:52;;;;;;;6.70;4.33;;;7.90;99.90;10.20;97561.00;;;;5032077;28;20220;-83
2022/12/31 11:55:12;;;;;;;7.23;4.70;;;8.20;99.90;10.40;97554.00;;;;5021518;28;20202;-84
2022/12/31 11:58:13;;;;;;;6.30;4.27;;;8.40;99.90;9.90;97551.00;;;;5020582;28;20205;-84
2022/12/31 12:01:09;;;;;;;6.40;3.50;;;8.50;99.90;9.70;97559.00;;;;5033187;28;20217;-83
2022/12/31 12:03:58;;;;;;;5.00;3.57;;;8.50;99.90;9.60;97551.00;;;;5028958;28;20201;-85
2022/12/31 12:06:48;;;;;;;8.47;4.57;;;8.50;99.90;10.40;97563.00;;;;5020377;28;20204;-85
2022/12/31 12:09:37;;;;;;;4.40;4.00;;;8.60;99.90;10.60;97565.00;;;;5033392;28;20229;-85
2022/12/31 12:12:26;;;;;;;6.00;3.90;;;8.90;99.90;11.10;97577.00;;;;5033575;28;20197;-82
2022/12/31 12:15:22;;;;;;;6.27;4.23;;;9.10;99.90;11.20;97562.00;;;;5033699;28;20248;-83
2022/12/31 12:18:29;;;;;;;5.60;3.70;;;9.30;99.90;10.80;97560.00;;;;5023325;28;20205;-85
2022/12/31 12:21:22;;;;;;;4.67;3.73;;;9.40;99.90;10.80;97563.00;;;;5033870;28;20275;-83
2022/12/31 12:24:24;;;;;;;8.80;4.53;;;9.40;99.90;10.50;97564.00;;;;5026504;28;20251;-83
2022/12/31 12:27:27;;;;;;;9.30;4.23;;;9.30;99.90;10.50;97561.00;;;;5029531;28;20209;-85
2022/12/31 12:30:22;;;;;;;15.23;9.80;;;9.30;99.90;10.90;97560.00;;;;5025918;28;20225;-83
2022/12/31 12:33:18;;;;;;;11.23;6.23;;;9.30;99.90;11.40;97552.00;;;;5026253;28;20214;-82
2022/12/31 12:36:09;;;;;;;5.00;4.60;;;9.60;99.90;11.50;97548.00;;;;5031258;28;20233;-86
2022/12/31 12:39:03;;;;;;;4.60;3.87;;;9.90;99.90;11.70;97545.00;;;;5031855;28;20263;-84
2022/12/31 12:42:07;;;;;;;9.50;3.57;;;10.10;99.90;11.70;97540.00;;;;5027077;28;20237;-84
2022/12/31 12:45:06;;;;;;;5.30;4.43;;;10.30;99.90;12.40;97531.00;;;;5028313;28;20289;-85
2022/12/31 12:47:59;;;;;;;11.20;5.13;;;10.80;99.90;13.90;97521.00;;;;5030741;28;20197;-84
2022/12/31 12:50:50;;;;;;;6.30;3.80;;;11.20;99.90;15.60;97520.00;;;;5027522;28;20236;-85
2022/12/31 12:53:47;;;;;;;5.17;3.10;;;12.10;99.90;16.40;97520.00;;;;5027490;28;20691;-85
2022/12/31 12:56:47;;;;;;;7.07;3.87;;;13.20;99.90;16.40;97525.00;;;;5018652;28;20235;-84
2022/12/31 13:00:03;;;;;;;6.37;4.03;;;14.10;99.90;16.70;97529.00;;;;5019179;28;20206;-86
2022/12/31 13:03:37;;;;;;;5.10;4.27;;;14.80;99.90;17.20;97519.00;;;;5021241;28;20197;-85
2022/12/31 13:06:46;;;;;;;5.27;3.53;;;15.40;99.90;17.70;97519.00;;;;5023564;28;20257;-85
2022/12/31 13:10:03;;;;;;;4.10;3.07;;;15.80;97.80;18.60;97524.00;;;;5034474;28;20617;-87
2022/12/31 13:13:01;;;;;;;5.20;3.47;;;16.20;97.20;18.40;97527.00;;;;5027714;28;20542;-86
2022/12/31 13:16:21;;;;;;;7.40;3.33;;;16.70;94.80;18.70;97531.00;;;;5030780;28;20221;-85
2022/12/31 13:19:18;;;;;;;3.40;2.97;;;17.10;92.40;18.60;97530.00;;;;5028603;28;20248;-86
2022/12/31 13:22:16;;;;;;;5.30;3.10;;;17.40;91.40;18.30;97530.00;;;;5030472;28;20224;-85
2022/12/31 13:25:23;;;;;;;4.60;3.10;;;17.60;90.40;18.80;97526.00;;;;5030483;28;20717;-85
2022/12/31 13:28:15;;;;;;;5.23;2.93;;;17.50;89.40;19.90;97533.00;;;;5032420;28;20194;-85
2022/12/31 13:31:12;;;;;;;8.90;3.87;;;17.80;88.50;18.70;97532.00;;;;5032377;28;20232;-85
2022/12/31 13:34:08;;;;;;;7.23;4.13;;;18.20;85.10;18.40;97528.00;;;;5032863;28;20220;-84
2022/12/31 13:37:02;;;;;;;8.23;4.73;;;18.00;84.20;18.40;97538.00;;;;5026093;28;20221;-84
2022/12/31 13:39:59;;;;;;;4.30;3.83;;;17.90;84.00;16.10;97521.00;;;;5031466;28;20209;-84